createdAt,value
2018-08-21T00:01:04.768Z,83.30
2018-08-21T00:03:33.934Z,82.50
2018-08-21T00:06:04.333Z,82.40
2018-08-21T00:08:33.246Z,83.20
2018-08-21T00:11:13.343Z,83.80
2018-08-21T00:13:42.281Z,83.50
2018-08-21T00:16:12.353Z,84.30
2018-08-21T00:18:41.222Z,84.50
2018-08-21T00:21:10.102Z,85.20
2018-08-21T00:23:38.967Z,85.10
2018-08-21T00:26:07.938Z,84.90
2018-08-21T00:28:36.830Z,85.60
2018-08-21T00:31:05.984Z,85.70
2018-08-21T00:33:34.910Z,87.10
2018-08-21T00:36:03.906Z,89.60
2018-08-21T00:38:32.826Z,90.30
2018-08-21T00:41:01.729Z,90.30
2018-08-21T00:43:30.639Z,90.70
2018-08-21T00:45:59.504Z,90.80
2018-08-21T00:48:28.425Z,91.10
2018-08-21T00:50:57.368Z,91.20
2018-08-21T00:53:26.326Z,90.40
2018-08-21T00:55:55.310Z,90.80
2018-08-21T00:58:24.326Z,90.70
2018-08-21T01:00:53.184Z,91.60
2018-08-21T01:03:22.117Z,91.20
2018-08-21T01:05:51.023Z,91.90
2018-08-21T01:08:19.895Z,92.00
2018-08-21T01:10:48.814Z,92.10
2018-08-21T01:13:17.694Z,91.90
2018-08-21T01:15:46.635Z,92.20
2018-08-21T01:18:15.517Z,92.60
2018-08-21T01:20:44.435Z,93.00
2018-08-21T01:23:13.321Z,93.10
2018-08-21T01:25:42.292Z,93.00
2018-08-21T01:28:11.157Z,93.10
2018-08-21T01:30:40.106Z,93.20
2018-08-21T01:33:09.398Z,93.60
2018-08-21T01:35:38.310Z,94.10
2018-08-21T01:38:07.212Z,94.20
2018-08-21T01:40:36.125Z,95.10
2018-08-21T01:43:05.062Z,94.50
2018-08-21T01:45:34.051Z,94.70
2018-08-21T01:48:03.084Z,95.80
2018-08-21T01:50:32.055Z,96.20
2018-08-21T01:53:00.951Z,96.60
2018-08-21T01:55:29.834Z,96.60
2018-08-21T01:57:58.727Z,96.40
2018-08-21T02:00:27.695Z,96.50
2018-08-21T02:02:56.610Z,96.60
2018-08-21T02:05:30.601Z,97.20
2018-08-21T02:07:59.675Z,97.10
2018-08-21T02:10:28.664Z,97.60
2018-08-21T02:12:57.534Z,97.80
2018-08-21T02:15:26.564Z,98.00
2018-08-21T02:17:55.458Z,99.20
2018-08-21T02:20:24.431Z,99.80
2018-08-21T02:22:53.407Z,99.90
2018-08-21T02:25:22.292Z,99.90
2018-08-21T02:27:51.217Z,99.90
2018-08-21T02:30:20.206Z,99.90
2018-08-21T02:32:49.074Z,99.90
2018-08-21T02:35:18.061Z,98.70
2018-08-21T02:37:46.911Z,97.60
2018-08-21T02:40:22.295Z,96.20
2018-08-21T02:42:52.227Z,94.80
2018-08-21T02:45:22.486Z,95.90
2018-08-21T02:47:51.369Z,95.90
2018-08-21T02:50:20.256Z,95.90
2018-08-21T02:52:49.188Z,96.00
2018-08-21T02:55:18.120Z,95.30
2018-08-21T02:57:47.075Z,94.80
2018-08-21T03:00:15.988Z,94.70
2018-08-21T03:02:45.409Z,94.30
2018-08-21T03:05:14.478Z,93.30
2018-08-21T03:07:43.405Z,92.50
2018-08-21T03:10:12.415Z,91.70
2018-08-21T03:12:41.305Z,91.10
2018-08-21T03:15:10.206Z,91.20
2018-08-21T03:17:39.114Z,91.10
2018-08-21T03:20:08.011Z,90.80
2018-08-21T03:22:36.923Z,91.10
2018-08-21T03:25:05.954Z,90.90
2018-08-21T03:27:34.845Z,91.20
2018-08-21T03:30:03.847Z,91.10
2018-08-21T03:32:32.713Z,90.70
2018-08-21T03:35:01.633Z,90.80
2018-08-21T03:37:30.564Z,90.70
2018-08-21T03:39:59.465Z,90.30
2018-08-21T03:42:28.362Z,89.60
2018-08-21T03:45:01.875Z,89.60
2018-08-21T03:47:36.430Z,90.80
2018-08-21T03:50:08.884Z,90.70
2018-08-21T03:52:37.845Z,90.80
2018-08-21T03:55:09.209Z,90.90
2018-08-21T03:57:39.200Z,90.20
2018-08-21T04:00:14.669Z,89.20
2018-08-21T04:02:43.694Z,89.80
2018-08-21T04:05:12.616Z,90.10
2018-08-21T04:07:41.721Z,89.40
2018-08-21T04:10:10.636Z,90.10
2018-08-21T04:12:39.649Z,90.10
2018-08-21T04:15:08.549Z,88.30
2018-08-21T04:17:37.456Z,88.40
2018-08-21T04:20:11.070Z,88.20
2018-08-21T04:22:39.989Z,87.80
2018-08-21T04:25:08.996Z,88.00
2018-08-21T04:27:37.932Z,87.90
2018-08-21T04:30:10.101Z,86.50
2018-08-21T04:32:39.030Z,87.20
2018-08-21T04:35:07.958Z,86.70
2018-08-21T04:37:36.903Z,86.00
2018-08-21T04:40:05.856Z,86.40
2018-08-21T04:42:34.758Z,85.80
2018-08-21T04:45:06.270Z,85.40
2018-08-21T04:47:39.054Z,85.80
2018-08-21T04:50:09.140Z,86.10
2018-08-21T04:52:40.099Z,86.70
2018-08-21T04:55:09.119Z,87.10
2018-08-21T04:57:38.023Z,87.60
2018-08-21T05:00:07.640Z,85.90
2018-08-21T05:02:46.380Z,88.20
2018-08-21T05:05:17.363Z,85.70
2018-08-21T05:08:02.475Z,86.70
2018-08-21T05:10:31.401Z,86.80
2018-08-21T05:13:00.772Z,87.50
2018-08-21T05:15:30.886Z,88.30
2018-08-21T05:18:01.683Z,89.40
2018-08-21T05:20:31.870Z,88.50
2018-08-21T05:23:00.848Z,88.00
2018-08-21T05:25:40.903Z,87.50
2018-08-21T05:28:09.804Z,85.90
2018-08-21T05:30:43.865Z,84.00
2018-08-21T05:33:12.887Z,84.50
2018-08-21T05:35:41.870Z,85.20
2018-08-21T05:38:10.911Z,85.00
2018-08-21T05:40:39.784Z,87.00
2018-08-21T05:43:08.763Z,85.90
2018-08-21T05:45:37.696Z,88.10
2018-08-21T05:48:08.245Z,87.80
2018-08-21T05:50:37.743Z,87.40
2018-08-21T05:53:06.648Z,86.20
2018-08-21T05:55:45.102Z,88.30
2018-08-21T05:58:14.013Z,88.50
2018-08-21T06:00:42.915Z,87.50
2018-08-21T06:03:11.842Z,87.70
2018-08-21T06:05:40.922Z,87.40
2018-08-21T06:08:10.611Z,86.80
2018-08-21T06:10:39.532Z,84.60
2018-08-21T06:13:09.719Z,82.20
2018-08-21T06:15:41.728Z,82.70
2018-08-21T06:18:20.647Z,82.30
2018-08-21T06:21:03.960Z,85.20
2018-08-21T06:23:34.348Z,81.80
2018-08-21T06:26:04.574Z,78.30
2018-08-21T06:28:36.444Z,78.60
2018-08-21T06:31:05.718Z,77.20
2018-08-21T06:33:34.671Z,76.50
2018-08-21T06:36:05.344Z,76.50
2018-08-21T06:38:34.703Z,75.90
2018-08-21T06:41:03.667Z,74.70
2018-08-21T06:43:32.609Z,73.70
2018-08-21T06:46:11.460Z,73.20
2018-08-21T06:48:40.378Z,71.30
2018-08-21T06:51:09.297Z,71.60
2018-08-21T06:53:38.202Z,69.80
2018-08-21T06:56:07.110Z,68.50
2018-08-21T06:58:36.017Z,66.80
2018-08-21T07:01:10.547Z,66.40
2018-08-21T07:03:39.539Z,67.00
2018-08-21T07:06:08.534Z,66.40
2018-08-21T07:08:37.484Z,65.40
2018-08-21T07:11:13.238Z,63.90
2018-08-21T07:13:42.131Z,63.50
2018-08-21T07:16:11.248Z,64.80
2018-08-21T07:18:40.118Z,65.70
2018-08-21T07:21:08.999Z,64.70
2018-08-21T07:23:37.926Z,64.40
2018-08-21T07:26:06.842Z,65.30
2018-08-21T07:28:35.717Z,65.80
2018-08-21T07:31:04.695Z,65.70
2018-08-21T07:33:34.263Z,65.90
2018-08-21T07:36:03.130Z,64.60
2018-08-21T07:38:38.366Z,64.10
2018-08-21T07:41:07.478Z,60.90
2018-08-21T07:43:36.378Z,59.60
2018-08-21T07:46:11.229Z,58.30
2018-08-21T07:48:47.386Z,53.40
2018-08-21T07:51:16.644Z,50.40
2018-08-21T07:53:46.914Z,51.00
2018-08-21T07:56:16.902Z,52.60
2018-08-21T07:59:04.944Z,52.40
2018-08-21T08:01:52.338Z,50.30
2018-08-21T08:04:25.645Z,50.40
2018-08-21T08:06:55.764Z,50.20
2018-08-21T08:09:25.198Z,48.60
2018-08-21T08:11:54.280Z,47.10
2018-08-21T08:14:23.179Z,46.50
2018-08-21T08:16:52.135Z,47.10
2018-08-21T08:19:21.028Z,46.50
2018-08-21T08:21:50.202Z,45.60
2018-08-21T08:24:20.006Z,46.00
2018-08-21T08:26:48.900Z,44.80
2018-08-21T08:29:17.776Z,43.50
2018-08-21T08:31:46.661Z,45.20
2018-08-21T08:34:15.620Z,46.90
2018-08-21T08:36:44.519Z,45.80
2018-08-21T08:39:13.487Z,45.90
2018-08-21T08:41:43.685Z,45.40
2018-08-21T08:44:12.510Z,45.80
2018-08-21T08:46:41.435Z,44.70
2018-08-21T08:49:11.183Z,43.00
2018-08-21T08:51:40.661Z,39.70
2018-08-21T08:54:09.565Z,38.50
2018-08-21T08:56:43.775Z,37.30
2018-08-21T08:59:12.749Z,36.60
2018-08-21T09:01:41.615Z,35.40
2018-08-21T09:04:10.521Z,33.80
2018-08-21T09:06:39.400Z,32.60
2018-08-21T09:09:09.767Z,32.50
2018-08-21T09:11:44.038Z,33.30
2018-08-21T09:14:12.943Z,35.00
2018-08-21T09:16:41.817Z,34.30
2018-08-21T09:19:10.717Z,33.40
2018-08-21T09:21:39.606Z,31.90
2018-08-21T09:24:08.519Z,30.80
2018-08-21T09:26:37.787Z,30.50
2018-08-21T09:29:07.085Z,30.80
2018-08-21T09:31:41.841Z,31.00
2018-08-21T09:34:10.762Z,33.30
2018-08-21T09:36:48.330Z,35.70
2018-08-21T09:39:17.707Z,36.30
2018-08-21T09:41:46.754Z,36.40
2018-08-21T09:44:15.657Z,34.70
2018-08-21T09:46:44.777Z,33.20
2018-08-21T09:49:13.654Z,32.10
2018-08-21T09:51:42.597Z,31.00
2018-08-21T09:54:11.463Z,32.50
2018-08-21T09:56:40.366Z,33.00
2018-08-21T09:59:18.233Z,32.80
2018-08-21T10:01:52.479Z,32.10
2018-08-21T10:04:26.559Z,30.40
2018-08-21T10:06:55.585Z,30.50
2018-08-21T10:09:24.498Z,29.90
2018-08-21T10:11:53.388Z,30.20
2018-08-21T10:14:22.325Z,30.80
2018-08-21T10:16:51.206Z,33.20
2018-08-21T10:19:20.194Z,33.10
2018-08-21T10:21:49.051Z,32.90
2018-08-21T10:24:17.978Z,34.20
2018-08-21T10:26:46.870Z,34.10
2018-08-21T10:29:15.807Z,34.10
2018-08-21T10:31:44.735Z,32.80
2018-08-21T10:34:13.601Z,32.70
2018-08-21T10:36:42.524Z,31.40
2018-08-21T10:39:12.037Z,31.10
2018-08-21T10:41:40.964Z,31.90
2018-08-21T10:44:09.907Z,31.70
2018-08-21T10:46:38.827Z,31.50
2018-08-21T10:49:07.691Z,30.80
2018-08-21T10:51:36.713Z,31.20
2018-08-21T10:54:05.598Z,30.50
2018-08-21T10:56:34.518Z,29.30
2018-08-21T10:59:03.403Z,29.20
2018-08-21T11:01:32.339Z,29.30
2018-08-21T11:04:01.208Z,29.20
2018-08-21T11:06:30.107Z,29.50
2018-08-21T11:08:58.983Z,29.40
2018-08-21T11:11:27.871Z,30.00
2018-08-21T11:14:04.099Z,31.70
2018-08-21T11:16:33.725Z,31.70
2018-08-21T11:19:03.295Z,31.10
2018-08-21T11:21:32.786Z,32.90
2018-08-21T11:24:01.842Z,33.60
2018-08-21T11:26:30.786Z,32.40
2018-08-21T11:29:00.042Z,32.70
2018-08-21T11:31:29.315Z,32.00
2018-08-21T11:33:58.278Z,33.00
2018-08-21T11:36:27.153Z,33.80
2018-08-21T11:38:56.035Z,34.50
2018-08-21T11:41:25.050Z,35.20
2018-08-21T11:43:53.917Z,34.10
2018-08-21T11:46:22.857Z,34.90
2018-08-21T11:48:51.749Z,32.80
2018-08-21T11:51:20.638Z,31.90
2018-08-21T11:53:49.492Z,31.40
2018-08-21T11:56:18.415Z,32.10
2018-08-21T11:58:47.301Z,34.10
2018-08-21T12:01:16.253Z,34.50
2018-08-21T12:03:45.127Z,33.10
2018-08-21T12:06:14.033Z,34.00
2018-08-21T12:08:42.952Z,32.10
2018-08-21T12:11:11.867Z,30.60
2018-08-21T12:13:40.805Z,30.50
2018-08-21T12:16:09.713Z,30.60
2018-08-21T12:18:38.660Z,31.50
2018-08-21T12:21:07.511Z,31.40
2018-08-21T12:23:36.493Z,31.70
2018-08-21T12:26:05.431Z,31.80
2018-08-21T12:28:34.359Z,31.80
2018-08-21T12:31:03.301Z,31.40
2018-08-21T12:33:32.265Z,31.60
2018-08-21T12:36:01.134Z,34.00
2018-08-21T12:38:30.055Z,34.70
2018-08-21T12:40:58.947Z,33.80
2018-08-21T12:43:27.931Z,33.80
2018-08-21T12:45:56.814Z,34.70
2018-08-21T12:48:25.686Z,36.20
2018-08-21T12:50:54.578Z,36.10
2018-08-21T12:53:23.433Z,36.20
2018-08-21T12:55:52.329Z,36.00
2018-08-21T12:58:21.196Z,35.80
2018-08-21T13:00:50.184Z,34.80
2018-08-21T13:03:19.063Z,35.60
2018-08-21T13:05:48.014Z,35.10
2018-08-21T13:08:16.877Z,34.50
2018-08-21T13:10:45.848Z,34.30
2018-08-21T13:13:14.719Z,34.40
2018-08-21T13:15:43.705Z,34.90
2018-08-21T13:18:12.615Z,34.80
2018-08-21T13:20:41.569Z,33.80
2018-08-21T13:23:10.494Z,32.20
2018-08-21T13:25:39.401Z,33.20
2018-08-21T13:28:08.303Z,33.80
2018-08-21T13:30:37.185Z,32.20
2018-08-21T13:33:06.192Z,32.80
2018-08-21T13:35:35.087Z,32.40
2018-08-21T13:38:04.075Z,30.70
2018-08-21T13:40:33.014Z,30.50
2018-08-21T13:43:01.917Z,30.00
2018-08-21T13:45:30.786Z,30.30
2018-08-21T13:47:59.775Z,31.70
2018-08-21T13:50:28.643Z,32.10
2018-08-21T13:52:57.547Z,30.70
2018-08-21T13:55:26.464Z,30.80
2018-08-21T13:57:55.358Z,31.20
2018-08-21T14:00:24.291Z,30.90
2018-08-21T14:02:53.170Z,30.20
2018-08-21T14:05:22.740Z,30.20
2018-08-21T14:07:51.613Z,30.40
2018-08-21T14:10:20.508Z,30.80
2018-08-21T14:12:49.485Z,30.10
2018-08-21T14:15:18.334Z,30.50
2018-08-21T14:17:47.233Z,30.20
2018-08-21T14:20:16.153Z,30.90
2018-08-21T14:22:45.004Z,31.90
2018-08-21T14:25:13.951Z,32.60
2018-08-21T14:30:59.690Z,31.50
2018-08-21T14:33:33.771Z,32.20
2018-08-21T14:38:56.674Z,33.00
2018-08-21T14:41:25.750Z,33.00
2018-08-21T14:43:54.637Z,33.00
2018-08-21T14:46:23.867Z,33.40
2018-08-21T14:48:52.655Z,32.90
2018-08-21T14:51:21.599Z,33.20
2018-08-21T14:53:50.491Z,33.00
2018-08-21T14:56:19.370Z,33.20
2018-08-21T14:58:48.298Z,33.00
2018-08-21T15:01:17.195Z,32.30
2018-08-21T15:03:46.102Z,32.30
2018-08-21T15:06:15.031Z,33.00
2018-08-21T15:08:43.949Z,33.10
2018-08-21T15:11:12.832Z,33.80
2018-08-21T15:13:41.794Z,33.20
2018-08-21T15:16:10.870Z,33.80
2018-08-21T15:18:39.742Z,33.90
2018-08-21T15:21:09.339Z,34.10
2018-08-21T15:23:38.346Z,34.90
2018-08-21T15:26:07.366Z,35.30
2018-08-21T15:28:36.300Z,35.00
2018-08-21T15:31:05.565Z,35.80
2018-08-21T15:33:34.614Z,35.80
2018-08-21T15:36:04.050Z,36.80
2018-08-21T15:38:33.035Z,37.60
2018-08-21T15:41:02.082Z,37.00
2018-08-21T15:43:31.053Z,37.40
2018-08-21T15:46:00.253Z,37.50
2018-08-21T15:48:29.210Z,37.70
2018-08-21T15:50:58.128Z,37.90
2018-08-21T15:53:28.371Z,37.90
2018-08-21T15:55:57.676Z,38.10
2018-08-21T15:58:27.362Z,38.20
2018-08-21T16:00:56.258Z,37.60
2018-08-21T16:03:25.214Z,38.00
2018-08-21T16:05:54.100Z,38.10
2018-08-21T16:08:22.996Z,37.60
2018-08-21T16:10:51.868Z,38.10
2018-08-21T16:13:20.786Z,38.20
2018-08-21T16:15:49.706Z,37.80
2018-08-21T16:18:18.631Z,38.30
2018-08-21T16:20:47.543Z,37.70
2018-08-21T16:23:16.450Z,37.80
2018-08-21T16:25:45.434Z,37.80
2018-08-21T16:28:14.338Z,38.00
2018-08-21T16:30:43.238Z,38.00
2018-08-21T16:33:12.402Z,38.50
2018-08-21T16:35:41.315Z,38.30
2018-08-21T16:38:10.240Z,38.50
2018-08-21T16:40:39.284Z,38.70
2018-08-21T16:43:08.252Z,38.70
2018-08-21T16:45:37.505Z,39.10
2018-08-21T16:48:06.420Z,39.20
2018-08-21T16:50:35.402Z,39.30
2018-08-21T16:53:04.426Z,39.70
2018-08-21T16:55:33.324Z,39.70
2018-08-21T16:58:02.288Z,39.80
2018-08-21T17:00:31.213Z,40.50
2018-08-21T17:03:00.101Z,39.80
2018-08-21T17:05:30.293Z,40.20
2018-08-21T17:07:59.354Z,40.50
2018-08-21T17:10:28.397Z,40.10
2018-08-21T17:12:57.386Z,41.10
2018-08-21T17:15:26.303Z,41.00
2018-08-21T17:17:55.228Z,41.50
2018-08-21T17:20:24.157Z,41.50
2018-08-21T17:22:53.162Z,41.90
2018-08-21T17:25:22.094Z,42.50
2018-08-21T17:27:51.083Z,42.10
2018-08-21T17:30:20.051Z,42.30
2018-08-21T17:32:48.995Z,42.30
2018-08-21T17:35:17.992Z,42.70
2018-08-21T17:37:46.908Z,43.10
2018-08-21T17:40:15.903Z,43.20
2018-08-21T17:42:44.829Z,43.10
2018-08-21T17:45:13.761Z,43.40
2018-08-21T17:47:42.679Z,43.60
2018-08-21T17:50:11.696Z,44.30
2018-08-21T17:52:40.591Z,44.40
2018-08-21T17:55:09.593Z,44.80
2018-08-21T17:57:38.534Z,44.50
2018-08-21T18:00:09.006Z,44.70
2018-08-21T18:02:38.015Z,44.90
2018-08-21T18:05:07.630Z,45.10
2018-08-21T18:07:36.579Z,45.00
2018-08-21T18:10:05.648Z,46.10
2018-08-21T18:12:34.535Z,46.20
2018-08-21T18:15:03.842Z,46.50
2018-08-21T18:17:32.891Z,46.00
2018-08-21T18:20:01.809Z,46.90
2018-08-21T18:22:31.066Z,46.90
2018-08-21T18:24:59.932Z,49.40
2018-08-21T18:27:28.827Z,50.00
2018-08-21T18:29:57.724Z,50.00
2018-08-21T18:32:26.684Z,50.80
2018-08-21T18:34:55.551Z,51.50
2018-08-21T18:37:24.486Z,50.90
2018-08-21T18:39:53.432Z,53.10
2018-08-21T18:42:22.429Z,53.40
2018-08-21T18:44:51.456Z,53.80
2018-08-21T18:47:20.376Z,54.70
2018-08-21T18:49:49.279Z,54.90
2018-08-21T18:52:18.376Z,56.40
2018-08-21T18:54:47.500Z,57.60
2018-08-21T18:57:16.525Z,57.90
2018-08-21T18:59:45.525Z,57.30
2018-08-21T19:02:14.639Z,56.40
2018-08-21T19:04:43.507Z,56.40
2018-08-21T19:07:12.516Z,55.40
2018-08-21T19:09:41.435Z,56.00
2018-08-21T19:12:10.369Z,55.20
2018-08-21T19:14:39.228Z,55.70
2018-08-21T19:17:08.143Z,56.40
2018-08-21T19:19:37.038Z,56.40
2018-08-21T19:22:06.021Z,56.60
2018-08-21T19:24:34.923Z,57.70
2018-08-21T19:27:03.885Z,58.40
2018-08-21T19:29:32.901Z,59.20
2018-08-21T19:32:01.843Z,59.40
2018-08-21T19:34:30.727Z,59.50
2018-08-21T19:36:59.670Z,59.80
2018-08-21T19:39:28.601Z,59.90
2018-08-21T19:41:57.528Z,59.80
2018-08-21T19:44:26.523Z,61.30
2018-08-21T19:46:55.486Z,61.30
2018-08-21T19:49:24.436Z,61.80
2018-08-21T19:51:53.374Z,62.80
2018-08-21T19:54:22.407Z,63.10
2018-08-21T19:56:52.121Z,63.70
2018-08-21T19:59:21.234Z,62.70
2018-08-21T20:01:51.219Z,62.10
2018-08-21T20:04:20.200Z,63.70
2018-08-21T20:06:49.091Z,65.20
2018-08-21T20:09:19.833Z,66.80
2018-08-21T20:11:48.940Z,68.20
2018-08-21T20:14:17.952Z,67.10
2018-08-21T20:16:46.941Z,66.80
2018-08-21T20:19:16.084Z,68.00
2018-08-21T20:21:44.997Z,68.80
2018-08-21T20:24:13.915Z,69.40
2018-08-21T20:26:42.862Z,69.50
2018-08-21T20:29:12.435Z,69.30
2018-08-21T20:31:41.367Z,70.40
2018-08-21T20:34:10.239Z,69.80
2018-08-21T20:36:39.172Z,68.70
2018-08-21T20:39:09.824Z,66.60
2018-08-21T20:41:38.739Z,66.10
2018-08-21T20:44:07.666Z,66.00
2018-08-21T20:46:36.542Z,65.20
2018-08-21T20:49:05.589Z,66.00
2018-08-21T20:51:34.488Z,66.60
2018-08-21T20:54:03.399Z,67.00
2018-08-21T20:56:32.320Z,68.60
2018-08-21T20:59:01.180Z,69.90
2018-08-21T21:01:30.072Z,69.20
2018-08-21T21:03:58.976Z,68.70
2018-08-21T21:06:28.103Z,69.30
2018-08-21T21:08:57.085Z,70.30
2018-08-21T21:11:26.000Z,71.40
2018-08-21T21:14:06.257Z,72.40
2018-08-21T21:16:46.547Z,71.40
2018-08-21T21:19:26.694Z,70.70
2018-08-21T21:22:06.652Z,70.60
2018-08-21T21:24:40.974Z,74.00
2018-08-21T21:27:09.970Z,74.20
2018-08-21T21:29:38.856Z,76.80
2018-08-21T21:32:07.746Z,77.10
2018-08-21T21:34:36.603Z,75.10
2018-08-21T21:37:05.575Z,76.20
2018-08-21T21:39:34.425Z,75.50
2018-08-21T21:42:03.355Z,74.50
2018-08-21T21:44:32.293Z,73.20
2018-08-21T21:47:01.206Z,72.40
2018-08-21T21:49:30.375Z,70.70
2018-08-21T21:51:59.328Z,69.60
2018-08-21T21:54:28.260Z,69.70
2018-08-21T21:56:57.169Z,68.60
2018-08-21T21:59:26.159Z,69.50
2018-08-21T22:01:55.090Z,71.50
2018-08-21T22:04:24.086Z,71.70
2018-08-21T22:06:53.025Z,75.50
2018-08-21T22:09:21.940Z,75.50
2018-08-21T22:11:51.798Z,77.60
2018-08-21T22:14:20.741Z,79.20
2018-08-21T22:16:49.588Z,79.50
2018-08-21T22:19:18.544Z,81.70
2018-08-21T22:21:47.473Z,83.10
2018-08-21T22:24:16.331Z,81.30
2018-08-21T22:26:45.359Z,83.40
2018-08-21T22:29:14.241Z,84.20
2018-08-21T22:31:43.166Z,84.20
2018-08-21T22:34:12.027Z,82.40
2018-08-21T22:36:57.339Z,83.00
2018-08-21T22:39:26.646Z,83.40
2018-08-21T22:41:55.947Z,84.70
2018-08-21T22:44:25.243Z,86.20
2018-08-21T22:46:54.572Z,84.70
2018-08-21T22:49:23.842Z,85.00
2018-08-21T22:51:53.080Z,80.40
2018-08-21T22:54:22.028Z,80.50
2018-08-21T22:56:50.891Z,81.50
2018-08-21T22:59:19.789Z,81.70
2018-08-21T23:01:48.742Z,82.80
2018-08-21T23:04:17.635Z,81.30
2018-08-21T23:06:46.871Z,81.50
2018-08-21T23:09:15.786Z,81.60
2018-08-21T23:12:01.077Z,82.90
2018-08-21T23:14:31.618Z,82.70
2018-08-21T23:17:00.918Z,81.20
2018-08-21T23:19:30.290Z,81.70
2018-08-21T23:21:59.649Z,83.10
2018-08-21T23:24:28.910Z,84.90
2018-08-21T23:26:57.795Z,87.40
2018-08-21T23:29:26.667Z,88.20
2018-08-21T23:31:55.558Z,86.80
2018-08-21T23:34:24.418Z,88.30
2018-08-21T23:36:53.322Z,90.30
2018-08-21T23:39:22.190Z,90.90
2018-08-21T23:41:51.093Z,92.20
2018-08-21T23:44:19.982Z,91.50
2018-08-21T23:46:48.887Z,91.20
2018-08-21T23:49:17.865Z,92.10
2018-08-21T23:51:46.767Z,93.30
2018-08-21T23:54:15.633Z,94.60
2018-08-21T23:56:44.510Z,96.50
2018-08-21T23:59:13.447Z,96.90
